Terminal Aerodrome Forecast
Issued by NWS Spokane, WA

Home | Current Version | Previous Version | Text Only | Print | Product List | Glossary On
Versions: 1 2 3 4 5 6 7 8 9 10 11 12 13 14 15 16 17 18 19 20 21 22 23 24 25 26 27 28 29 30 31 32 33 34 35 36 37 38
000
FTUS46 KOTX 172252 AAA
TAFLWS
TAF AMD
KLWS 172252Z 1723/1818 16020G30KT P6SM BKN080 OVC100
     FM180000 15017KT P6SM OVC070
     FM180600 15012KT P6SM -FZRA OVC040
     FM180900 15014G20KT P6SM -RA BKN030 OVC050=

USA.gov is the U.S. government's official web portal to all federal, state and local government web resources and services.